createdAt,value
2018-11-06T00:01:50.573Z,12.47
2018-11-06T00:04:17.310Z,13.50
2018-11-06T00:06:44.026Z,11.97
2018-11-06T00:09:10.070Z,12.53
2018-11-06T00:11:36.045Z,12.53
2018-11-06T00:14:02.054Z,12.97
2018-11-06T00:16:28.064Z,13.30
2018-11-06T00:18:54.036Z,12.03
2018-11-06T00:21:20.011Z,12.27
2018-11-06T00:23:46.030Z,12.47
2018-11-06T00:26:12.012Z,12.43
2018-11-06T00:28:38.735Z,12.97
2018-11-06T00:31:04.717Z,12.13
2018-11-06T00:33:31.413Z,12.20
2018-11-06T00:35:57.408Z,13.00
2018-11-06T00:38:23.376Z,12.03
2018-11-06T00:40:49.348Z,11.77
2018-11-06T00:43:15.299Z,12.73
2018-11-06T00:45:41.292Z,10.67
2018-11-06T00:48:07.244Z,12.60
2018-11-06T00:50:33.234Z,11.97
2018-11-06T00:52:59.187Z,13.03
2018-11-06T00:55:25.194Z,11.47
2018-11-06T00:57:51.164Z,11.60
2018-11-06T01:00:17.126Z,11.60
2018-11-06T01:02:43.115Z,11.43
2018-11-06T01:05:09.070Z,10.77
2018-11-06T01:07:35.049Z,12.83
2018-11-06T01:10:01.775Z,10.97
2018-11-06T01:12:27.759Z,11.23
2018-11-06T01:14:53.722Z,11.17
2018-11-06T01:17:19.704Z,11.33
2018-11-06T01:19:45.676Z,10.57
2018-11-06T01:22:12.472Z,10.30
2018-11-06T01:24:38.429Z,12.53
2018-11-06T01:27:04.398Z,10.53
2018-11-06T01:29:31.121Z,11.87
2018-11-06T01:31:57.801Z,10.77
2018-11-06T01:34:23.802Z,10.60
2018-11-06T01:36:49.765Z,11.53
2018-11-06T01:39:15.756Z,11.53
2018-11-06T01:41:41.720Z,12.00
2018-11-06T01:44:07.699Z,11.40
2018-11-06T01:46:33.686Z,11.43
2018-11-06T01:49:00.400Z,11.20
2018-11-06T01:51:26.362Z,11.03
2018-11-06T01:53:53.091Z,12.50
2018-11-06T01:56:19.790Z,11.73
2018-11-06T01:58:45.780Z,10.73
2018-11-06T02:01:11.758Z,12.17
2018-11-06T02:03:37.722Z,11.27
2018-11-06T02:06:04.413Z,11.10
2018-11-06T02:08:30.506Z,11.43
2018-11-06T02:10:56.458Z,10.27
2018-11-06T02:13:22.414Z,11.00
2018-11-06T02:15:49.150Z,10.87
2018-11-06T02:18:15.854Z,11.47
2018-11-06T02:20:41.831Z,10.03
2018-11-06T02:23:08.548Z,10.10
2018-11-06T02:25:35.271Z,11.30
2018-11-06T02:28:01.243Z,10.73
2018-11-06T02:30:27.231Z,9.83
2018-11-06T02:32:53.184Z,10.10
2018-11-06T02:35:19.123Z,10.90
2018-11-06T02:37:45.106Z,11.30
2018-11-06T02:40:11.813Z,10.40
2018-11-06T02:42:38.118Z,11.40
2018-11-06T02:45:04.088Z,10.20
2018-11-06T02:47:30.830Z,11.67
2018-11-06T02:49:57.616Z,11.57
2018-11-06T02:52:23.566Z,10.00
2018-11-06T02:54:49.631Z,11.90
2018-11-06T02:57:15.618Z,11.57
2018-11-06T02:59:41.587Z,10.10
2018-11-06T03:02:07.555Z,11.03
2018-11-06T03:04:33.542Z,11.93
2018-11-06T03:06:59.528Z,11.73
2018-11-06T03:09:26.288Z,10.23
2018-11-06T03:11:52.986Z,11.90
2018-11-06T03:14:18.932Z,11.63
2018-11-06T03:16:44.922Z,10.47
2018-11-06T03:19:10.893Z,11.30
2018-11-06T03:21:37.641Z,10.70
2018-11-06T03:24:04.368Z,10.87
2018-11-06T03:26:31.107Z,9.87
2018-11-06T03:28:57.063Z,9.70
2018-11-06T03:31:23.046Z,11.40
2018-11-06T03:33:49.784Z,10.60
2018-11-06T03:36:15.753Z,9.60
2018-11-06T03:38:41.739Z,10.30
2018-11-06T03:41:08.461Z,10.07
2018-11-06T03:43:34.416Z,10.43
2018-11-06T03:46:00.442Z,10.00
2018-11-06T03:48:26.417Z,11.10
2018-11-06T03:50:52.392Z,9.83
2018-11-06T03:53:18.358Z,9.57
2018-11-06T03:55:44.320Z,11.73
2018-11-06T03:58:10.272Z,8.30
2018-11-06T04:00:36.239Z,10.20
2018-11-06T04:03:02.201Z,9.77
2018-11-06T04:05:28.203Z,8.77
2018-11-06T04:07:54.906Z,9.00
2018-11-06T04:10:20.894Z,9.73
2018-11-06T04:12:47.585Z,8.90
2018-11-06T04:15:13.577Z,8.67
2018-11-06T04:17:39.572Z,7.93
2018-11-06T04:20:06.253Z,6.73
2018-11-06T04:22:32.251Z,9.17
2018-11-06T04:24:58.203Z,8.03
2018-11-06T04:27:24.212Z,8.20
2018-11-06T04:29:50.185Z,8.97
2018-11-06T04:32:16.911Z,8.93
2018-11-06T04:34:42.870Z,9.07
2018-11-06T04:37:08.854Z,8.00
2018-11-06T04:39:34.821Z,8.40
2018-11-06T04:42:00.813Z,7.77
2018-11-06T04:44:27.523Z,8.30
2018-11-06T04:46:53.524Z,9.03
2018-11-06T04:49:19.979Z,8.77
2018-11-06T04:51:45.978Z,7.53
2018-11-06T04:54:11.928Z,7.47
2018-11-06T04:56:37.911Z,8.67
2018-11-06T04:59:03.879Z,6.83
2018-11-06T05:01:29.854Z,7.27
2018-11-06T05:03:55.852Z,7.73
2018-11-06T05:06:22.546Z,8.07
2018-11-06T05:08:49.120Z,7.43
2018-11-06T05:11:15.834Z,7.40
2018-11-06T05:13:41.838Z,7.60
2018-11-06T05:16:07.831Z,7.53
2018-11-06T05:18:33.786Z,7.10
2018-11-06T05:20:59.764Z,7.67
2018-11-06T05:23:26.447Z,8.10
2018-11-06T05:25:52.429Z,6.90
2018-11-06T05:28:19.136Z,7.27
2018-11-06T05:30:45.127Z,8.13
2018-11-06T05:33:11.080Z,7.87
2018-11-06T05:35:37.088Z,7.20
2018-11-06T05:38:03.046Z,7.37
2018-11-06T05:40:29.793Z,7.13
2018-11-06T05:42:56.515Z,6.40
2018-11-06T05:45:22.479Z,7.00
2018-11-06T05:47:48.468Z,7.27
2018-11-06T05:50:15.156Z,7.37
2018-11-06T05:52:41.137Z,6.83
2018-11-06T05:55:07.837Z,7.13
2018-11-06T05:57:33.815Z,6.73
2018-11-06T05:59:59.783Z,6.93
2018-11-06T06:02:26.495Z,6.27
2018-11-06T06:04:52.446Z,6.33
2018-11-06T06:07:18.438Z,6.27
2018-11-06T06:09:44.403Z,7.37
2018-11-06T06:12:10.390Z,7.37
2018-11-06T06:14:36.391Z,7.37
2018-11-06T06:17:03.082Z,6.07
2018-11-06T06:19:29.099Z,7.80
2018-11-06T06:21:55.065Z,6.93
2018-11-06T06:24:21.136Z,7.57
2018-11-06T06:26:47.109Z,6.50
2018-11-06T06:29:13.836Z,7.10
2018-11-06T06:31:40.622Z,6.33
2018-11-06T06:34:06.597Z,7.10
2018-11-06T06:36:32.582Z,6.63
2018-11-06T06:38:58.638Z,6.50
2018-11-06T06:41:24.631Z,6.13
2018-11-06T06:43:50.601Z,6.13
2018-11-06T06:46:16.670Z,6.47
2018-11-06T06:48:43.327Z,6.73
2018-11-06T06:51:09.296Z,6.17
2018-11-06T06:53:36.017Z,6.60
2018-11-06T06:56:01.977Z,7.10
2018-11-06T06:58:27.984Z,6.73
2018-11-06T07:00:54.685Z,6.97
2018-11-06T07:03:20.689Z,5.77
2018-11-06T07:05:46.653Z,5.60
2018-11-06T07:08:12.642Z,6.27
2018-11-06T07:10:38.629Z,6.30
2018-11-06T07:13:04.722Z,6.20
2018-11-06T07:15:30.590Z,6.47
2018-11-06T07:17:56.547Z,6.47
2018-11-06T07:20:22.547Z,5.80
2018-11-06T07:22:48.501Z,6.40
2018-11-06T07:25:14.445Z,6.83
2018-11-06T07:27:41.196Z,6.70
2018-11-06T07:30:07.937Z,7.33
2018-11-06T07:32:33.959Z,6.57
2018-11-06T07:35:00.845Z,7.63
2018-11-06T07:37:26.654Z,7.07
2018-11-06T07:39:52.638Z,7.07
2018-11-06T07:42:18.665Z,8.23
2018-11-06T07:44:45.343Z,7.20
2018-11-06T07:47:11.337Z,6.93
2018-11-06T07:49:37.283Z,7.30
2018-11-06T07:52:03.297Z,6.57
2018-11-06T07:54:29.294Z,7.10
2018-11-06T07:56:56.022Z,7.03
2018-11-06T07:59:21.984Z,6.50
2018-11-06T08:01:47.943Z,7.57
2018-11-06T08:04:13.964Z,7.33
2018-11-06T08:06:39.948Z,6.77
2018-11-06T08:09:05.939Z,7.40
2018-11-06T08:11:31.910Z,6.87
2018-11-06T08:13:57.884Z,6.90
2018-11-06T08:16:24.606Z,7.13
2018-11-06T08:18:50.573Z,6.50
2018-11-06T08:21:16.541Z,7.43
2018-11-06T08:23:42.571Z,7.77
2018-11-06T08:26:08.519Z,7.37
2018-11-06T08:28:35.254Z,8.17
2018-11-06T08:31:02.152Z,7.00
2018-11-06T08:33:29.080Z,7.07
2018-11-06T08:35:55.037Z,6.37
2018-11-06T08:38:21.011Z,6.77
2018-11-06T08:40:47.007Z,6.60
2018-11-06T08:43:12.956Z,7.33
2018-11-06T08:45:38.954Z,7.53
2018-11-06T08:48:04.911Z,7.37
2018-11-06T08:50:30.901Z,6.57
2018-11-06T08:52:57.597Z,7.03
2018-11-06T08:55:23.700Z,7.73
2018-11-06T08:57:49.661Z,6.60
2018-11-06T09:00:15.643Z,7.63
2018-11-06T09:02:41.652Z,8.10
2018-11-06T09:05:08.344Z,6.90
2018-11-06T09:07:34.323Z,6.60
2018-11-06T09:10:00.284Z,7.07
2018-11-06T09:12:26.296Z,6.97
2018-11-06T09:14:52.263Z,7.57
2018-11-06T09:17:18.213Z,7.33
2018-11-06T09:19:44.204Z,7.23
2018-11-06T09:22:10.180Z,7.03
2018-11-06T09:24:36.156Z,7.77
2018-11-06T09:27:02.871Z,7.67
2018-11-06T09:29:28.897Z,8.07
2018-11-06T09:31:54.869Z,7.83
2018-11-06T09:34:20.850Z,7.37
2018-11-06T09:36:46.825Z,7.17
2018-11-06T09:39:12.778Z,7.77
2018-11-06T09:41:39.510Z,7.73
2018-11-06T09:44:05.474Z,7.70
2018-11-06T09:46:31.463Z,7.97
2018-11-06T09:48:57.423Z,7.60
2018-11-06T09:51:24.253Z,7.60
2018-11-06T09:53:50.217Z,6.80
2018-11-06T09:56:16.188Z,7.50
2018-11-06T09:58:42.171Z,7.60
2018-11-06T10:01:08.127Z,6.80
2018-11-06T10:03:34.125Z,7.57
2018-11-06T10:06:00.138Z,7.10
2018-11-06T10:08:26.883Z,6.97
2018-11-06T10:10:52.840Z,6.60
2018-11-06T10:13:18.843Z,7.20
2018-11-06T10:15:44.883Z,6.93
2018-11-06T10:18:10.822Z,7.03
2018-11-06T10:20:38.406Z,6.57
2018-11-06T10:23:05.090Z,7.10
2018-11-06T10:25:31.082Z,7.37
2018-11-06T10:27:57.038Z,6.50
2018-11-06T10:30:23.030Z,7.40
2018-11-06T10:32:49.032Z,5.90
2018-11-06T10:35:15.771Z,7.07
2018-11-06T10:37:42.478Z,6.43
2018-11-06T10:40:08.457Z,6.80
2018-11-06T10:42:34.443Z,7.07
2018-11-06T10:45:00.405Z,7.77
2018-11-06T10:47:26.404Z,6.67
2018-11-06T10:49:53.104Z,6.97
2018-11-06T10:52:19.085Z,7.13
2018-11-06T10:54:45.064Z,6.53
2018-11-06T10:57:11.026Z,6.80
2018-11-06T10:59:37.021Z,6.67
2018-11-06T11:02:02.969Z,6.60
2018-11-06T11:04:28.975Z,6.67
2018-11-06T11:06:55.684Z,7.00
2018-11-06T11:09:21.686Z,6.30
2018-11-06T11:11:47.650Z,6.70
2018-11-06T11:14:20.565Z,7.20
2018-11-06T11:16:46.533Z,7.23
2018-11-06T11:19:12.494Z,6.70
2018-11-06T11:21:39.232Z,6.77
2018-11-06T11:24:05.222Z,6.73
2018-11-06T11:26:31.210Z,6.27
2018-11-06T11:28:57.174Z,6.00
2018-11-06T11:31:23.157Z,6.53
2018-11-06T11:33:49.136Z,6.40
2018-11-06T11:36:15.119Z,6.63
2018-11-06T11:38:41.088Z,6.87
2018-11-06T11:41:07.819Z,6.97
2018-11-06T11:43:33.771Z,6.87
2018-11-06T11:45:59.833Z,6.23
2018-11-06T11:48:25.722Z,7.17
2018-11-06T11:50:51.676Z,6.30
2018-11-06T11:53:17.664Z,6.27
2018-11-06T11:55:43.637Z,6.20
2018-11-06T11:58:09.622Z,6.20
2018-11-06T12:00:35.588Z,6.07
2018-11-06T12:03:01.574Z,6.07
2018-11-06T12:05:27.532Z,6.37
2018-11-06T12:07:53.513Z,7.10
2018-11-06T12:10:19.494Z,5.90
2018-11-06T12:12:45.479Z,6.07
2018-11-06T12:15:11.433Z,6.60
2018-11-06T12:17:37.405Z,7.03
2018-11-06T12:20:03.410Z,6.63
2018-11-06T12:22:29.375Z,6.23
2018-11-06T12:24:55.439Z,6.33
2018-11-06T12:27:22.067Z,6.93
2018-11-06T12:29:48.056Z,7.37
2018-11-06T12:32:14.021Z,6.57
2018-11-06T12:34:40.746Z,6.80
2018-11-06T12:37:06.751Z,6.90
2018-11-06T12:39:32.688Z,6.03
2018-11-06T12:41:58.676Z,6.17
2018-11-06T12:44:24.619Z,6.30
2018-11-06T12:46:50.597Z,6.33
2018-11-06T12:49:16.585Z,6.67
2018-11-06T12:51:42.586Z,6.27
2018-11-06T12:54:08.588Z,6.40
2018-11-06T12:56:34.587Z,6.07
2018-11-06T12:59:00.557Z,6.97
2018-11-06T13:01:26.557Z,6.67
2018-11-06T13:03:52.561Z,6.50
2018-11-06T13:06:18.502Z,5.30
2018-11-06T13:08:44.515Z,6.17
2018-11-06T13:11:10.486Z,6.33
2018-11-06T13:13:36.478Z,5.83
2018-11-06T13:16:02.461Z,5.70
2018-11-06T13:18:29.181Z,6.13
2018-11-06T13:20:55.159Z,5.30
2018-11-06T13:23:21.158Z,5.43
2018-11-06T13:25:47.228Z,6.00
2018-11-06T13:28:13.100Z,5.63
2018-11-06T13:30:39.810Z,5.17
2018-11-06T13:33:05.804Z,5.73
2018-11-06T13:35:31.763Z,5.60
2018-11-06T13:37:57.841Z,5.10
2018-11-06T13:40:23.802Z,5.07
2018-11-06T13:42:49.920Z,5.63
2018-11-06T13:45:15.977Z,5.37
2018-11-06T13:47:41.803Z,5.53
2018-11-06T13:50:07.791Z,4.70
2018-11-06T13:52:33.747Z,5.00
2018-11-06T13:54:59.741Z,5.20
2018-11-06T13:57:25.705Z,4.83
2018-11-06T13:59:51.687Z,5.30
2018-11-06T14:02:17.649Z,5.27
2018-11-06T14:04:43.658Z,5.77
2018-11-06T14:07:09.631Z,5.50
2018-11-06T14:09:35.595Z,5.37
2018-11-06T14:12:02.288Z,5.13
2018-11-06T14:14:28.292Z,5.70
2018-11-06T14:16:54.258Z,5.73
2018-11-06T14:19:20.229Z,5.90
2018-11-06T14:21:46.216Z,5.10
2018-11-06T14:24:12.930Z,4.70
2018-11-06T14:26:38.902Z,5.30
2018-11-06T14:29:05.615Z,5.30
2018-11-06T14:31:31.612Z,5.23
2018-11-06T14:33:57.598Z,5.43
2018-11-06T14:36:23.547Z,5.47
2018-11-06T14:38:49.538Z,5.23
2018-11-06T14:41:15.506Z,5.07
2018-11-06T14:43:41.508Z,5.20
2018-11-06T14:46:07.489Z,5.50
2018-11-06T14:48:34.402Z,4.93
2018-11-06T14:51:00.230Z,4.57
2018-11-06T14:53:26.981Z,4.80
2018-11-06T14:55:53.724Z,5.37
2018-11-06T14:58:20.464Z,5.20
2018-11-06T15:00:47.172Z,5.97
2018-11-06T15:03:13.195Z,5.37
2018-11-06T15:05:39.237Z,5.50
2018-11-06T15:08:05.198Z,5.43
2018-11-06T15:10:31.900Z,6.20
2018-11-06T15:12:57.905Z,5.73
2018-11-06T15:15:23.864Z,5.90
2018-11-06T15:17:50.572Z,5.40
2018-11-06T15:20:16.538Z,5.83
2018-11-06T15:22:42.504Z,6.03
2018-11-06T15:25:08.483Z,6.37
2018-11-06T15:27:34.529Z,6.53
2018-11-06T15:30:00.505Z,6.80
2018-11-06T15:32:26.496Z,6.63
2018-11-06T15:34:52.466Z,6.23
2018-11-06T15:37:19.190Z,6.50
2018-11-06T15:39:45.159Z,6.93
2018-11-06T15:42:11.163Z,6.63
2018-11-06T15:44:37.084Z,6.70
2018-11-06T15:47:03.079Z,6.87
2018-11-06T15:49:29.048Z,7.77
2018-11-06T15:51:55.044Z,6.57
2018-11-06T15:54:21.042Z,6.30
2018-11-06T15:56:47.032Z,7.13
2018-11-06T15:59:13.003Z,7.43
2018-11-06T16:01:39.755Z,6.57
2018-11-06T16:04:06.456Z,6.90
2018-11-06T16:06:32.437Z,5.77
2018-11-06T16:08:58.423Z,7.00
2018-11-06T16:11:25.170Z,6.90
2018-11-06T16:13:51.893Z,7.23
2018-11-06T16:16:17.906Z,8.00
2018-11-06T16:18:43.875Z,6.80
2018-11-06T16:21:10.577Z,6.57
2018-11-06T16:23:36.567Z,6.37
2018-11-06T16:26:02.539Z,7.07
2018-11-06T16:28:29.239Z,6.60
2018-11-06T16:30:55.201Z,7.63
2018-11-06T16:33:21.937Z,7.87
2018-11-06T16:35:47.893Z,7.63
2018-11-06T16:38:13.861Z,7.80
2018-11-06T16:40:39.872Z,7.80
2018-11-06T16:43:05.838Z,7.90
2018-11-06T16:45:31.834Z,6.43
2018-11-06T16:47:57.806Z,7.70
2018-11-06T16:50:23.802Z,7.90
2018-11-06T16:52:50.529Z,7.67
2018-11-06T16:55:16.519Z,7.97
2018-11-06T16:57:42.481Z,7.57
2018-11-06T17:00:09.277Z,7.27
2018-11-06T17:02:35.197Z,7.23
2018-11-06T17:05:01.194Z,7.33
2018-11-06T17:07:27.206Z,7.40
2018-11-06T17:09:53.938Z,7.30
2018-11-06T17:12:20.686Z,7.20
2018-11-06T17:14:47.396Z,7.93
2018-11-06T17:17:13.449Z,7.67
2018-11-06T17:19:39.361Z,7.50
2018-11-06T17:22:06.127Z,7.53
2018-11-06T17:24:32.095Z,7.27
2018-11-06T17:26:58.088Z,7.77
2018-11-06T17:29:24.046Z,7.83
2018-11-06T17:31:50.063Z,7.47
2018-11-06T17:34:16.068Z,7.40
2018-11-06T17:36:42.146Z,8.23
2018-11-06T17:39:08.854Z,7.90
2018-11-06T17:41:34.844Z,6.90
2018-11-06T17:44:00.846Z,6.87
2018-11-06T17:46:27.568Z,7.30
2018-11-06T17:48:53.545Z,7.53
2018-11-06T17:51:19.809Z,7.97
2018-11-06T17:53:45.793Z,7.30
2018-11-06T17:56:11.765Z,6.67
2018-11-06T17:58:37.737Z,7.37
2018-11-06T18:01:03.736Z,7.20
2018-11-06T18:03:29.748Z,7.63
2018-11-06T18:05:55.726Z,7.33
2018-11-06T18:08:21.710Z,7.83
2018-11-06T18:10:47.674Z,7.80
2018-11-06T18:13:13.709Z,7.57
2018-11-06T18:15:39.669Z,7.47
2018-11-06T18:18:06.478Z,7.63
2018-11-06T18:20:33.118Z,7.17
2018-11-06T18:22:59.096Z,7.17
2018-11-06T18:25:25.233Z,8.10
2018-11-06T18:27:51.114Z,8.13
2018-11-06T18:30:17.845Z,7.73
2018-11-06T18:32:43.834Z,8.43
2018-11-06T18:35:09.829Z,8.07
2018-11-06T18:37:35.852Z,8.03
2018-11-06T18:40:01.851Z,7.30
2018-11-06T18:42:28.554Z,7.63
2018-11-06T18:44:54.536Z,7.87
2018-11-06T18:47:20.542Z,7.43
2018-11-06T18:49:47.709Z,8.10
2018-11-06T18:52:13.613Z,8.80
2018-11-06T18:54:39.588Z,10.60
2018-11-06T18:57:05.609Z,12.50
2018-11-06T18:59:32.370Z,12.10
2018-11-06T19:01:58.357Z,9.73
2018-11-06T19:04:24.345Z,10.17
2018-11-06T19:06:51.056Z,8.20
2018-11-06T19:09:17.015Z,8.10
2018-11-06T19:11:43.008Z,7.37
2018-11-06T19:14:08.968Z,7.87
2018-11-06T19:16:34.989Z,7.50
2018-11-06T19:19:00.974Z,8.27
2018-11-06T19:21:26.995Z,8.10
2018-11-06T19:23:53.736Z,7.83
2018-11-06T19:26:20.495Z,8.67
2018-11-06T19:28:47.234Z,7.53
2018-11-06T19:31:14.000Z,7.33
2018-11-06T19:33:39.981Z,7.47
2018-11-06T19:36:05.946Z,8.10
2018-11-06T19:38:31.941Z,7.93
2018-11-06T19:40:57.905Z,7.53
2018-11-06T19:43:23.958Z,7.80
2018-11-06T19:45:49.906Z,8.10
2018-11-06T19:48:15.911Z,8.40
2018-11-06T19:50:41.879Z,6.63
2018-11-06T19:53:07.960Z,8.43
2018-11-06T19:55:33.902Z,8.27
2018-11-06T19:58:00.655Z,7.90
2018-11-06T20:00:26.643Z,8.00
2018-11-06T20:02:53.407Z,8.33
2018-11-06T20:05:19.449Z,8.63
2018-11-06T20:07:46.153Z,7.93
2018-11-06T20:10:12.146Z,9.17
2018-11-06T20:12:38.132Z,7.77
2018-11-06T20:15:04.130Z,7.80
2018-11-06T20:17:30.135Z,8.70
2018-11-06T20:19:56.081Z,8.13
2018-11-06T20:22:22.796Z,8.10
2018-11-06T20:24:48.789Z,9.87
2018-11-06T20:27:14.823Z,8.83
2018-11-06T20:29:40.833Z,7.97
2018-11-06T20:32:06.820Z,9.90
2018-11-06T20:34:33.540Z,8.97
2018-11-06T20:36:59.517Z,9.10
2018-11-06T20:39:25.524Z,7.97
2018-11-06T20:41:51.502Z,8.90
2018-11-06T20:44:17.516Z,7.93
2018-11-06T20:46:43.482Z,8.17
2018-11-06T20:49:09.459Z,8.77
2018-11-06T20:51:35.465Z,8.60
2018-11-06T20:54:01.441Z,7.90
2018-11-06T20:56:27.462Z,7.97
2018-11-06T20:58:54.169Z,7.97
2018-11-06T21:01:20.255Z,8.90
2018-11-06T21:03:46.184Z,8.53
2018-11-06T21:06:12.148Z,8.77
2018-11-06T21:08:38.140Z,8.73
2018-11-06T21:11:04.108Z,7.80
2018-11-06T21:13:30.838Z,8.80
2018-11-06T21:15:57.568Z,9.07
2018-11-06T21:18:23.579Z,9.20
2018-11-06T21:20:49.524Z,9.20
2018-11-06T21:23:16.269Z,9.67
2018-11-06T21:25:42.364Z,8.50
2018-11-06T21:28:08.267Z,9.60
2018-11-06T21:30:34.263Z,8.43
2018-11-06T21:33:00.270Z,8.87
2018-11-06T21:35:26.993Z,8.73
2018-11-06T21:37:52.953Z,8.70
2018-11-06T21:40:18.952Z,8.40
2018-11-06T21:42:45.664Z,8.67
2018-11-06T21:45:11.682Z,8.73
2018-11-06T21:47:37.755Z,8.73
2018-11-06T21:50:04.525Z,9.33
2018-11-06T21:52:30.563Z,8.90
2018-11-06T21:54:56.573Z,8.57
2018-11-06T21:57:22.540Z,9.13
2018-11-06T21:59:48.535Z,9.67
2018-11-06T22:02:14.521Z,8.73
2018-11-06T22:04:41.242Z,8.93
2018-11-06T22:07:07.944Z,8.70
2018-11-06T22:09:33.963Z,7.80
2018-11-06T22:11:59.985Z,9.30
2018-11-06T22:14:25.960Z,7.43
2018-11-06T22:16:52.699Z,8.43
2018-11-06T22:19:18.721Z,7.83
2018-11-06T22:21:45.517Z,7.90
2018-11-06T22:24:12.159Z,7.30
2018-11-06T22:26:38.142Z,8.17
2018-11-06T22:29:04.126Z,8.73
2018-11-06T22:31:30.151Z,9.10
2018-11-06T22:33:56.862Z,8.03
2018-11-06T22:36:22.863Z,8.53
2018-11-06T22:38:48.868Z,7.67
2018-11-06T22:41:14.887Z,8.13
2018-11-06T22:43:41.592Z,8.43
2018-11-06T22:46:08.421Z,7.80
2018-11-06T22:48:35.171Z,7.77
2018-11-06T22:51:01.193Z,7.93
2018-11-06T22:53:27.168Z,8.03
2018-11-06T22:55:53.949Z,8.33
2018-11-06T22:58:19.936Z,7.93
2018-11-06T23:00:46.637Z,8.77
2018-11-06T23:03:12.631Z,9.10
2018-11-06T23:05:39.388Z,8.83
2018-11-06T23:08:05.331Z,7.80
2018-11-06T23:10:32.027Z,8.03
2018-11-06T23:12:58.054Z,8.37
2018-11-06T23:15:24.041Z,7.50
2018-11-06T23:17:50.082Z,8.07
2018-11-06T23:20:16.014Z,8.73
2018-11-06T23:22:41.962Z,8.30
2018-11-06T23:25:08.052Z,7.97
2018-11-06T23:27:33.967Z,8.50
2018-11-06T23:29:59.958Z,7.37
2018-11-06T23:32:26.682Z,7.87
2018-11-06T23:34:52.667Z,8.57
2018-11-06T23:37:18.619Z,8.00
2018-11-06T23:39:44.621Z,8.47
2018-11-06T23:42:10.600Z,8.57
2018-11-06T23:44:37.323Z,8.30
2018-11-06T23:47:04.092Z,8.03
2018-11-06T23:49:30.103Z,8.70
2018-11-06T23:51:56.885Z,8.20
2018-11-06T23:54:22.878Z,9.60
2018-11-06T23:56:48.855Z,8.63
2018-11-06T23:59:14.802Z,7.53
